Time;durP1;ratioP1;P1;durP2;ratioP2;P2;SDS_P1;SDS_P2;PMS_P1;PMS_P2;Temp;Humidity;BMP_temperature;BMP_pressure;BME280_temperature;BME280_humidity;BME280_pressure;Samples;Min_cycle;Max_cycle;Signal;HPM_P1;HPM_P2
2023/05/07 00:01:05;;;;;;;12.20;9.13;;;;;;;8.21;100.00;99971.63;5097082;28;20019;-85
2023/05/07 00:03:30;;;;;;;10.23;9.07;;;;;;;8.43;100.00;100008.19;5115587;28;20077;-86
2023/05/07 00:05:55;;;;;;;11.65;9.23;;;;;;;8.54;100.00;100021.66;5096811;28;20023;-86
2023/05/07 00:08:21;;;;;;;10.60;9.27;;;;;;;8.20;100.00;99965.59;5115425;28;20467;-86
2023/05/07 00:10:46;;;;;;;10.15;8.57;;;;;;;8.38;100.00;99992.72;5051930;28;20033;-85
2023/05/07 00:13:12;;;;;;;9.93;8.38;;;;;;;8.58;100.00;100018.06;5051927;28;20037;-85
2023/05/07 00:15:37;;;;;;;11.98;9.15;;;;;;;8.61;100.00;100019.72;5052140;28;20045;-86
2023/05/07 00:18:03;;;;;;;10.80;9.15;;;;;;;8.21;100.00;99972.47;5051972;28;20033;-86
2023/05/07 00:20:28;;;;;;;10.23;9.23;;;;;;;8.53;100.00;100013.91;5052068;28;20033;-85
2023/05/07 00:22:53;;;;;;;10.27;8.45;;;;;;;8.55;100.00;100027.69;5052109;28;20096;-85
2023/05/07 00:25:19;;;;;;;10.73;9.52;;;;;;;8.59;100.00;100035.31;5034947;28;20029;-85
2023/05/07 00:27:45;;;;;;;10.85;9.73;;;;;;;8.43;100.00;100014.22;5035203;28;20033;-85
2023/05/07 00:30:11;;;;;;;12.57;10.57;;;;;;;8.09;100.00;99978.06;5051970;28;20037;-86
2023/05/07 00:32:36;;;;;;;13.05;10.38;;;;;;;8.43;100.00;100022.00;5051630;28;20103;-86
2023/05/07 00:35:02;;;;;;;12.25;10.27;;;;;;;8.17;100.00;99989.03;5050672;28;20047;-86
2023/05/07 00:37:28;;;;;;;10.98;9.35;;;;;;;8.34;100.00;99993.69;5051810;28;20044;-86
2023/05/07 00:39:53;;;;;;;12.13;10.88;;;;;;;8.52;100.00;100025.22;5051704;28;20029;-86
2023/05/07 00:42:18;;;;;;;16.27;11.55;;;;;;;8.41;100.00;100021.19;5096974;28;20049;-86
2023/05/07 00:44:44;;;;;;;13.57;10.88;;;;;;;8.42;100.00;100020.28;5114842;28;20020;-86
2023/05/07 00:47:10;;;;;;;15.95;12.40;;;;;;;8.42;100.00;100030.66;5096204;28;20371;-86
2023/05/07 00:49:42;;;;;;;15.95;12.10;;;;;;;8.17;100.00;100025.34;5096371;28;20035;-85
2023/05/07 00:52:10;;;;;;;13.93;12.00;;;;;;;8.00;100.00;99984.38;5114393;28;20057;-86
2023/05/07 00:54:36;;;;;;;13.63;11.65;;;;;;;8.32;100.00;100024.03;5096001;28;20016;-86
2023/05/07 00:57:03;;;;;;;16.92;12.95;;;;;;;8.18;100.00;99997.69;5096050;28;20073;-86
2023/05/07 00:59:28;;;;;;;15.55;12.52;;;;;;;8.13;100.00;99996.97;5114577;28;20039;-86
2023/05/07 01:01:54;;;;;;;13.23;11.68;;;;;;;8.23;100.00;100003.59;5114773;28;20032;-86
2023/05/07 01:04:19;;;;;;;14.60;13.10;;;;;;;8.30;100.00;100028.44;5095973;28;20532;-86
2023/05/07 01:06:46;;;;;;;18.08;12.32;;;;;;;8.27;100.00;100056.25;5114131;28;20031;-86
2023/05/07 01:09:12;;;;;;;12.32;11.02;;;;;;;8.27;100.00;100038.91;5095568;28;20058;-86
2023/05/07 01:11:39;;;;;;;14.30;12.15;;;;;;;8.37;100.00;100052.47;5114276;28;20028;-86
2023/05/07 01:14:05;;;;;;;15.93;12.00;;;;;;;8.15;100.00;100016.78;5114051;28;20375;-86
2023/05/07 01:16:31;;;;;;;15.23;12.15;;;;;;;8.17;100.00;100006.34;5114204;28;20031;-86
2023/05/07 01:18:56;;;;;;;16.67;11.80;;;;;;;8.17;100.00;99989.03;5114048;28;20041;-86
2023/05/07 01:21:26;;;;;;;15.20;12.57;;;;;;;8.09;100.00;99980.66;5095448;28;20034;-86
2023/05/07 01:23:52;;;;;;;15.02;12.95;;;;;;;8.14;100.00;99986.56;5114323;28;20081;-86
2023/05/07 01:26:19;;;;;;;17.77;13.15;;;;;;;8.13;100.00;100025.50;5113800;28;20031;-86
2023/05/07 01:28:45;;;;;;;13.82;12.07;;;;;;;8.16;100.00;100020.22;5113957;28;20542;-86
2023/05/07 01:31:13;;;;;;;17.63;12.48;;;;;;;8.19;100.00;100041.75;5113695;28;20110;-86
2023/05/07 01:33:41;;;;;;;15.10;11.73;;;;;;;8.00;100.00;100017.25;5113885;28;20047;-86
2023/05/07 01:36:08;;;;;;;16.77;12.90;;;;;;;8.13;100.00;100049.72;5113443;28;20383;-86
2023/05/07 01:38:35;;;;;;;15.45;11.80;;;;;;;8.18;100.00;100041.81;5113522;28;20031;-86
2023/05/07 01:41:01;;;;;;;15.63;12.57;;;;;;;8.12;100.00;100044.56;5095225;28;20038;-86
2023/05/07 01:43:27;;;;;;;15.60;11.80;;;;;;;8.23;100.00;100045.94;5095397;28;20391;-86
2023/05/07 01:45:52;;;;;;;13.35;11.70;;;;;;;8.00;100.00;100002.53;5113374;28;20015;-86
2023/05/07 01:48:18;;;;;;;14.80;12.45;;;;;;;8.25;100.00;100038.94;5113294;28;20050;-86
2023/05/07 01:50:44;;;;;;;16.23;12.43;;;;;;;8.36;100.00;100054.19;5095048;28;20020;-86
2023/05/07 01:53:09;;;;;;;12.80;11.50;;;;;;;8.36;100.00;100056.78;5094851;28;20020;-86
2023/05/07 01:55:36;;;;;;;15.57;11.20;;;;;;;8.04;100.00;100016.25;5095290;28;20390;-86
2023/05/07 01:58:02;;;;;;;14.90;11.55;;;;;;;8.19;100.00;100043.50;5094870;28;20374;-86
2023/05/07 02:00:27;;;;;;;14.70;11.40;;;;;;;8.28;100.00;100050.16;5113332;28;20016;-86
2023/05/07 02:02:53;;;;;;;13.75;11.35;;;;;;;8.27;100.00;100056.25;5113455;28;20028;-86
2023/05/07 02:05:18;;;;;;;13.95;12.43;;;;;;;8.15;100.00;100023.72;5094671;28;20061;-86
2023/05/07 02:07:44;;;;;;;14.68;12.75;;;;;;;8.21;100.00;100023.53;5095084;28;20077;-86
2023/05/07 02:10:09;;;;;;;12.88;11.07;;;;;;;8.28;100.00;100068.31;5094751;28;20110;-86
2023/05/07 02:12:35;;;;;;;15.27;12.32;;;;;;;7.94;100.00;100045.97;5113176;28;20031;-86
2023/05/07 02:15:00;;;;;;;14.35;12.23;;;;;;;7.97;100.00;100048.47;5113067;28;20417;-86
2023/05/07 02:17:25;;;;;;;14.77;11.98;;;;;;;8.05;100.00;100053.41;5094371;28;20459;-86
2023/05/07 02:19:51;;;;;;;13.20;11.63;;;;;;;8.02;100.00;100025.00;5112823;28;20023;-86
2023/05/07 02:22:16;;;;;;;15.02;12.73;;;;;;;8.02;100.00;100044.00;5112547;28;20028;-86
2023/05/07 02:24:41;;;;;;;14.15;12.63;;;;;;;7.90;100.00;100024.47;5049412;28;20037;-86
2023/05/07 02:27:07;;;;;;;16.13;12.82;;;;;;;8.07;100.00;100062.88;5049542;28;20033;-86
2023/05/07 02:29:32;;;;;;;14.13;12.70;;;;;;;7.97;100.00;100045.88;5032962;28;20033;-87
2023/05/07 02:31:57;;;;;;;19.02;13.70;;;;;;;7.95;100.00;100037.28;5049634;28;20021;-87
2023/05/07 02:34:23;;;;;;;16.38;13.77;;;;;;;7.89;100.00;100040.06;5049160;28;20142;-86
2023/05/07 02:36:48;;;;;;;18.02;14.10;;;;;;;7.71;100.00;100020.69;5049616;28;20485;-86
2023/05/07 02:39:13;;;;;;;17.65;13.05;;;;;;;7.88;100.00;100072.94;5049371;28;20032;-86
2023/05/07 02:41:39;;;;;;;16.70;14.65;;;;;;;7.82;100.00;100041.97;5032916;28;20021;-86
2023/05/07 02:44:05;;;;;;;15.55;13.38;;;;;;;7.93;100.00;100047.72;5049182;28;20037;-86
2023/05/07 02:46:30;;;;;;;19.55;13.75;;;;;;;7.84;100.00;100049.75;5049477;28;20029;-87
2023/05/07 02:48:55;;;;;;;15.90;13.32;;;;;;;7.86;100.00;100074.72;5032644;28;20471;-87
2023/05/07 02:51:22;;;;;;;15.20;13.55;;;;;;;7.78;100.00;100040.38;5049082;28;20036;-87
2023/05/07 02:53:47;;;;;;;15.10;13.50;;;;;;;7.92;100.00;100063.31;5049355;28;20563;-86
2023/05/07 02:56:13;;;;;;;16.50;13.57;;;;;;;7.83;100.00;100061.81;5094552;28;20066;-86
2023/05/07 02:58:42;;;;;;;15.88;14.18;;;;;;;7.95;100.00;100081.38;5093681;28;20032;-86
2023/05/07 03:01:08;;;;;;;14.05;12.45;;;;;;;7.80;100.00;100035.16;5093851;28;20023;-86
2023/05/07 03:03:33;;;;;;;16.58;12.13;;;;;;;7.79;100.00;100044.66;5112259;28;20036;-86
2023/05/07 03:05:59;;;;;;;13.98;12.43;;;;;;;7.96;100.00;100072.69;5112174;28;20031;-86
2023/05/07 03:08:24;;;;;;;12.80;11.40;;;;;;;8.03;100.00;100084.59;5093999;28;20431;-86
2023/05/07 03:10:50;;;;;;;14.90;12.45;;;;;;;7.71;100.00;100025.88;5094160;28;20044;-86
2023/05/07 03:13:15;;;;;;;14.60;12.25;;;;;;;8.09;100.00;100092.22;5112193;28;20372;-87
2023/05/07 03:15:41;;;;;;;18.13;13.50;;;;;;;7.85;100.00;100062.66;5112280;28;20039;-87
2023/05/07 03:18:06;;;;;;;14.18;12.45;;;;;;;8.03;100.00;100079.41;5111900;28;20024;-87
2023/05/07 03:20:31;;;;;;;16.42;13.73;;;;;;;7.83;100.00;100061.81;5112031;28;20059;-87
2023/05/07 03:22:57;;;;;;;14.85;12.75;;;;;;;7.78;100.00;100060.28;5093962;28;20042;-86
2023/05/07 03:25:22;;;;;;;15.25;13.65;;;;;;;7.72;100.00;100056.97;5111870;28;20114;-87
2023/05/07 03:27:47;;;;;;;16.83;15.05;;;;;;;7.92;100.00;100090.13;5093934;28;20505;-87
2023/05/07 03:30:13;;;;;;;19.75;16.25;;;;;;;7.67;100.00;100048.47;5111883;28;20378;-86
2023/05/07 03:32:38;;;;;;;22.70;16.67;;;;;;;7.90;100.00;100097.06;5111905;28;20052;-87
2023/05/07 03:35:04;;;;;;;17.38;14.10;;;;;;;7.55;100.00;100050.56;5111974;28;20080;-87
2023/05/07 03:37:29;;;;;;;16.67;13.60;;;;;;;7.64;100.00;100097.81;5111938;28;20481;-86
2023/05/07 03:39:55;;;;;;;15.48;13.57;;;;;;;7.76;100.00;100107.00;5112129;28;20106;-87
2023/05/07 03:42:20;;;;;;;15.05;12.60;;;;;;;7.87;100.00;100119.66;5111824;28;20027;-87
2023/05/07 03:44:46;;;;;;;14.55;12.85;;;;;;;7.66;100.00;100106.38;5093524;28;20114;-87
2023/05/07 03:47:13;;;;;;;16.35;12.77;;;;;;;7.73;100.00;100107.91;5111665;28;20120;-87
2023/05/07 03:49:38;;;;;;;13.68;12.25;;;;;;;7.83;100.00;100107.66;5111832;28;20031;-87
2023/05/07 03:52:04;;;;;;;19.90;17.42;;;;;;;7.69;100.00;100082.13;5093753;28;20019;-87
2023/05/07 03:54:30;;;;;;;15.43;13.48;;;;;;;7.70;100.00;100089.00;5093585;28;20027;-87
2023/05/07 03:56:55;;;;;;;17.73;13.95;;;;;;;7.46;100.00;100078.44;5112226;28;20379;-86
2023/05/07 03:59:22;;;;;;;15.32;13.52;;;;;;;7.61;100.00;100099.63;5111627;28;20024;-86
2023/05/07 04:01:48;;;;;;;14.98;11.88;;;;;;;7.91;100.00;100142.88;5093542;28;20031;-86
2023/05/07 04:04:14;;;;;;;14.52;12.93;;;;;;;7.85;100.00;100137.00;5048421;28;20140;-86
2023/05/07 04:06:40;;;;;;;13.07;11.45;;;;;;;7.90;100.00;100145.50;5048696;28;20041;-87
2023/05/07 04:09:05;;;;;;;12.35;11.05;;;;;;;7.86;100.00;100136.09;5048631;28;20048;-86
2023/05/07 04:11:30;;;;;;;13.68;11.88;;;;;;;7.67;100.00;100117.63;5050808;28;20079;-87
2023/05/07 04:13:55;;;;;;;12.40;11.05;;;;;;;7.82;100.00;100121.53;5052273;28;20090;-86
2023/05/07 04:16:21;;;;;;;13.32;11.15;;;;;;;7.83;100.00;100133.59;5035231;28;20032;-86
2023/05/07 04:18:46;;;;;;;14.90;12.13;;;;;;;8.03;100.00;100152.06;5052124;28;20045;-86
2023/05/07 04:21:16;;;;;;;11.38;10.23;;;;;;;8.06;100.00;100149.38;5051808;28;20111;-86
2023/05/07 04:23:41;;;;;;;12.30;10.05;;;;;;;7.89;100.00;100164.56;5035471;28;20076;-86
2023/05/07 04:26:06;;;;;;;13.40;10.68;;;;;;;7.66;100.00;100118.50;5031905;28;20067;-86
2023/05/07 04:28:32;;;;;;;16.50;10.60;;;;;;;7.95;100.00;100167.81;5032164;28;20045;-86
2023/05/07 04:30:57;;;;;;;13.32;10.25;;;;;;;8.05;100.00;100176.22;5032064;28;20040;-86
2023/05/07 04:33:22;;;;;;;12.35;9.70;;;;;;;7.77;100.00;100145.00;5031495;28;20486;-86
2023/05/07 04:35:48;;;;;;;12.23;10.18;;;;;;;7.77;100.00;100137.22;5076898;28;20550;-86
2023/05/07 04:38:13;;;;;;;12.50;10.88;;;;;;;7.86;100.00;100142.16;5074763;28;20040;-86
2023/05/07 04:40:39;;;;;;;10.10;8.88;;;;;;;8.08;100.00;100180.47;5075190;28;20028;-86
2023/05/07 04:43:04;;;;;;;11.73;9.45;;;;;;;8.04;100.00;100151.16;5074846;28;20044;-86
2023/05/07 04:45:30;;;;;;;11.20;9.45;;;;;;;8.20;100.00;100201.72;5091476;28;20067;-86
2023/05/07 04:47:55;;;;;;;12.20;9.88;;;;;;;8.12;100.00;100180.31;5092024;28;20040;-86
2023/05/07 04:50:23;;;;;;;14.30;10.63;;;;;;;8.24;100.00;100189.50;5091602;28;20549;-86
2023/05/07 04:52:48;;;;;;;10.88;8.00;;;;;;;8.03;100.00;100152.06;5091707;28;20036;-86
2023/05/07 04:55:14;;;;;;;9.68;8.60;;;;;;;7.83;100.00;100121.47;5091489;28;20442;-86
2023/05/07 04:57:41;;;;;;;9.98;8.10;;;;;;;7.79;100.00;100134.56;5086045;28;20163;-86
2023/05/07 05:00:08;;;;;;;9.15;8.25;;;;;;;7.83;100.00;100162.13;5091639;28;20067;-86
2023/05/07 05:02:34;;;;;;;10.48;8.65;;;;;;;8.10;100.00;100199.44;5091171;28;20130;-86
2023/05/07 05:05:01;;;;;;;10.85;7.85;;;;;;;7.92;100.00;100191.28;5091346;28;20050;-86
2023/05/07 05:07:26;;;;;;;7.95;6.82;;;;;;;7.81;100.00;100200.22;5091133;28;20040;-86
2023/05/07 05:09:52;;;;;;;7.63;6.88;;;;;;;7.77;100.00;100183.03;5091351;28;20568;-86
2023/05/07 05:12:17;;;;;;;10.38;7.78;;;;;;;7.87;100.00;100206.09;5091064;28;20042;-85
2023/05/07 05:14:42;;;;;;;9.27;7.75;;;;;;;7.71;100.00;100165.88;5091137;28;20035;-86
2023/05/07 05:17:08;;;;;;;9.68;8.00;;;;;;;7.79;100.00;100174.31;5091193;28;20043;-86
2023/05/07 05:19:33;;;;;;;7.70;6.85;;;;;;;8.11;100.00;100216.69;5091011;28;20032;-86
2023/05/07 05:22:00;;;;;;;10.65;7.85;;;;;;;8.05;100.00;100211.66;5090719;28;20028;-86
2023/05/07 05:24:26;;;;;;;9.50;7.78;;;;;;;7.77;100.00;100183.03;5090925;28;20106;-86
2023/05/07 05:26:54;;;;;;;10.68;7.80;;;;;;;7.74;100.00;100156.28;5091061;28;20040;-86
2023/05/07 05:29:19;;;;;;;9.57;7.50;;;;;;;8.03;100.00;100208.28;5108440;28;20035;-86
2023/05/07 05:31:45;;;;;;;10.23;8.88;;;;;;;7.92;100.00;100192.97;5050512;28;20044;-85
2023/05/07 05:34:10;;;;;;;8.40;6.97;;;;;;;7.89;100.00;100185.31;5050447;28;20060;-86
2023/05/07 05:36:35;;;;;;;7.38;6.68;;;;;;;8.10;100.00;100227.97;5050421;28;20047;-86
2023/05/07 05:39:01;;;;;;;8.65;7.55;;;;;;;8.15;100.00;100226.94;5050831;28;20063;-86
2023/05/07 05:41:26;;;;;;;9.75;7.25;;;;;;;8.04;99.98;100195.25;5050485;28;20499;-85
2023/05/07 05:43:51;;;;;;;8.57;7.55;;;;;;;8.20;99.86;100232.00;5050451;28;20134;-85
2023/05/07 05:46:17;;;;;;;7.25;6.07;;;;;;;7.98;99.59;100191.09;5049914;28;20683;-86
2023/05/07 05:48:42;;;;;;;9.38;6.93;;;;;;;8.24;99.28;100239.66;5050415;28;20623;-85
2023/05/07 05:51:07;;;;;;;8.23;6.82;;;;;;;7.92;99.22;100193.88;5050352;28;20049;-85
2023/05/07 05:53:33;;;;;;;9.02;6.70;;;;;;;8.07;99.12;100207.28;5050210;28;20038;-85
2023/05/07 05:55:59;;;;;;;10.40;7.45;;;;;;;8.22;99.32;100228.50;5050411;28;20029;-85
2023/05/07 05:58:24;;;;;;;9.10;7.25;;;;;;;8.26;98.50;100221.47;5049809;28;20139;-85
2023/05/07 06:00:52;;;;;;;13.57;11.23;;;;;;;7.79;98.44;100165.69;5050200;28;20028;-85
2023/05/07 06:03:17;;;;;;;8.95;7.00;;;;;;;8.12;97.99;100218.41;5081012;28;20036;-85
2023/05/07 06:05:42;;;;;;;11.60;8.15;;;;;;;8.04;98.50;100197.00;5091547;28;20043;-85
2023/05/07 06:08:08;;;;;;;10.48;8.30;;;;;;;8.16;98.72;100235.56;5092869;28;20035;-85
2023/05/07 06:10:33;;;;;;;11.20;9.27;;;;;;;8.12;98.57;100239.16;5092556;28;20059;-85
2023/05/07 06:12:58;;;;;;;11.30;10.10;;;;;;;8.22;98.79;100245.81;5092742;28;20031;-85
2023/05/07 06:15:24;;;;;;;13.45;10.48;;;;;;;7.95;98.22;100214.50;5092297;28;20031;-85
2023/05/07 06:17:49;;;;;;;11.20;10.00;;;;;;;8.19;98.41;100246.72;5092811;28;20059;-85
2023/05/07 06:20:15;;;;;;;11.80;10.05;;;;;;;8.15;98.35;100259.84;5092622;28;20448;-85
2023/05/07 06:22:40;;;;;;;10.75;9.65;;;;;;;7.90;97.65;100218.13;5092301;28;20020;-85
2023/05/07 06:25:06;;;;;;;11.25;9.18;;;;;;;8.08;97.90;100235.78;5092362;28;20357;-85
2023/05/07 06:27:31;;;;;;;9.95;8.38;;;;;;;8.06;97.71;100270.47;5090905;28;20031;-85
2023/05/07 06:29:56;;;;;;;10.55;8.88;;;;;;;7.86;97.68;100238.09;5092307;28;20031;-85
2023/05/07 06:32:22;;;;;;;10.60;9.50;;;;;;;8.17;98.12;100269.25;5092548;28;20028;-85
2023/05/07 06:34:47;;;;;;;9.32;8.40;;;;;;;8.25;97.98;100267.31;5094058;28;20015;-85
2023/05/07 06:37:12;;;;;;;9.02;7.95;;;;;;;8.29;97.08;100277.63;5112669;28;20028;-85
2023/05/07 06:39:38;;;;;;;8.50;7.57;;;;;;;8.31;97.24;100270.66;5094152;28;20467;-85
2023/05/07 06:42:04;;;;;;;7.45;6.10;;;;;;;8.33;95.75;100287.88;5112638;28;20107;-84
2023/05/07 06:44:30;;;;;;;6.55;5.57;;;;;;;8.29;94.74;100277.63;5112139;28;20080;-84
2023/05/07 06:46:55;;;;;;;9.82;7.47;;;;;;;8.35;94.83;100288.69;5094116;28;20114;-84
2023/05/07 06:49:20;;;;;;;10.52;7.65;;;;;;;7.92;93.43;100214.63;5112507;28;20676;-84
2023/05/07 06:51:46;;;;;;;7.03;6.00;;;;;;;8.33;93.59;100297.41;5094356;28;20030;-84
2023/05/07 06:54:11;;;;;;;7.60;6.80;;;;;;;8.18;93.05;100275.31;5112531;28;20130;-84
2023/05/07 06:56:37;;;;;;;8.77;7.18;;;;;;;7.99;92.63;100259.38;5111948;28;20128;-84
2023/05/07 06:59:03;;;;;;;9.38;7.50;;;;;;;8.33;93.28;100297.41;5093991;28;20473;-84
2023/05/07 07:01:29;;;;;;;18.38;11.40;;;;;;;8.19;92.93;100258.84;5112142;28;20031;-84
2023/05/07 07:03:54;;;;;;;9.30;7.00;;;;;;;8.33;92.83;100290.47;5094216;28;20035;-84
2023/05/07 07:06:20;;;;;;;10.32;7.82;;;;;;;8.22;93.77;100280.38;5112173;28;20027;-84
2023/05/07 07:08:45;;;;;;;11.20;8.32;;;;;;;8.29;93.51;100290.59;5112310;28;20506;-84
2023/05/07 07:11:11;;;;;;;9.05;7.38;;;;;;;8.21;94.06;100265.69;5093969;28;20047;-84
2023/05/07 07:13:36;;;;;;;8.80;7.38;;;;;;;8.33;93.82;100284.44;5111970;28;20024;-83
2023/05/07 07:16:02;;;;;;;8.65;6.70;;;;;;;8.55;93.83;100302.88;5112131;28;20080;-83
2023/05/07 07:18:27;;;;;;;10.15;7.75;;;;;;;8.47;93.75;100296.19;5112022;28;20028;-84
2023/05/07 07:20:53;;;;;;;8.30;7.43;;;;;;;8.45;94.33;100294.50;5093888;28;20059;-84
2023/05/07 07:23:18;;;;;;;12.10;8.40;;;;;;;8.50;95.45;100300.41;5093945;28;20367;-84
2023/05/07 07:25:43;;;;;;;8.70;7.80;;;;;;;8.38;94.51;100275.66;5111708;28;20020;-84
2023/05/07 07:28:10;;;;;;;10.88;9.00;;;;;;;8.54;94.41;100309.81;5112073;28;20479;-84
2023/05/07 07:30:35;;;;;;;9.77;8.65;;;;;;;8.72;93.51;100311.06;5111777;28;20024;-83
2023/05/07 07:33:02;;;;;;;11.27;9.52;;;;;;;8.75;92.83;100319.59;5093717;28;20407;-84
2023/05/07 07:35:29;;;;;;;10.73;8.70;;;;;;;8.62;92.74;100314.81;5111924;28;20475;-84
2023/05/07 07:37:54;;;;;;;8.90;7.72;;;;;;;8.66;93.11;100329.41;5112058;28;20035;-84
2023/05/07 07:40:19;;;;;;;10.32;7.50;;;;;;;8.49;92.97;100298.72;5112035;28;20019;-84
2023/05/07 07:42:45;;;;;;;8.98;8.05;;;;;;;8.79;93.30;100335.97;5093476;28;20088;-84
2023/05/07 07:45:10;;;;;;;8.93;8.02;;;;;;;8.87;92.52;100331.41;5113981;28;20080;-84
2023/05/07 07:47:36;;;;;;;9.32;8.27;;;;;;;8.68;91.50;100301.63;5115741;28;20032;-83
2023/05/07 07:50:01;;;;;;;9.23;8.32;;;;;;;8.93;91.69;100346.84;5115507;28;20032;-84
2023/05/07 07:52:26;;;;;;;10.65;8.85;;;;;;;8.53;91.51;100309.88;5097053;28;20023;-84
2023/05/07 07:54:52;;;;;;;9.60;8.57;;;;;;;8.72;92.38;100342.22;5115626;28;20515;-84
2023/05/07 07:57:17;;;;;;;11.48;9.10;;;;;;;8.65;92.31;100314.72;5115659;28;20032;-83
2023/05/07 07:59:43;;;;;;;11.45;9.40;;;;;;;8.81;92.52;100341.97;5096863;28;20387;-84
2023/05/07 08:02:08;;;;;;;10.48;8.45;;;;;;;8.70;92.69;100333.63;5115559;28;20065;-84
2023/05/07 08:04:35;;;;;;;10.50;9.23;;;;;;;8.64;92.84;100306.09;5115226;28;20016;-83
2023/05/07 08:07:00;;;;;;;11.50;8.70;;;;;;;8.58;92.42;100313.19;5115519;28;20036;-83
2023/05/07 08:09:25;;;;;;;13.43;12.05;;;;;;;8.53;93.31;100326.31;5115267;28;20019;-84
2023/05/07 08:11:51;;;;;;;14.10;10.40;;;;;;;8.34;93.71;100301.69;5097045;28;20034;-83
2023/05/07 08:14:16;;;;;;;10.70;9.07;;;;;;;8.56;94.38;100336.63;5115214;28;20399;-83
2023/05/07 08:16:41;;;;;;;12.30;11.00;;;;;;;8.47;94.88;100335.13;5115202;28;20035;-84
2023/05/07 08:19:07;;;;;;;13.18;11.88;;;;;;;8.33;95.44;100316.41;5096996;28;20019;-84
2023/05/07 08:21:32;;;;;;;13.45;11.73;;;;;;;8.56;95.89;100339.22;5115063;28;20111;-83
2023/05/07 08:23:57;;;;;;;14.68;12.73;;;;;;;8.71;95.45;100349.16;5115452;28;20103;-83
2023/05/07 08:26:23;;;;;;;13.38;12.05;;;;;;;8.76;95.21;100354.22;5115062;28;20077;-84
2023/05/07 08:28:48;;;;;;;12.70;11.40;;;;;;;8.89;94.86;100358.19;5096405;28;20653;-83
2023/05/07 08:31:13;;;;;;;12.20;10.85;;;;;;;8.88;93.11;100359.06;5096806;28;20034;-83
2023/05/07 08:33:39;;;;;;;13.38;11.88;;;;;;;8.70;93.21;100307.66;5114858;28;20048;-83
2023/05/07 08:36:05;;;;;;;12.90;11.60;;;;;;;8.83;92.85;100355.75;5114960;28;20107;-83
2023/05/07 08:38:31;;;;;;;18.50;11.40;;;;;;;8.64;93.89;100359.78;5114585;28;20391;-83
2023/05/07 08:40:56;;;;;;;12.32;11.13;;;;;;;8.55;93.86;100349.63;5114722;28;20080;-83
2023/05/07 08:43:26;;;;;;;13.35;11.77;;;;;;;8.71;94.03;100376.88;5114699;28;20084;-83
2023/05/07 08:45:54;;;;;;;16.48;12.00;;;;;;;8.67;94.28;100383.03;5096435;28;20020;-83
2023/05/07 08:48:25;;;;;;;13.38;11.85;;;;;;;8.52;94.91;100373.09;5114821;28;20027;-83
2023/05/07 08:50:51;;;;;;;14.10;10.52;;;;;;;8.35;94.42;100383.88;5114512;28;20020;-83
2023/05/07 08:53:16;;;;;;;9.93;8.82;;;;;;;8.43;93.90;100390.63;5114574;28;20110;-83
2023/05/07 08:55:41;;;;;;;12.43;9.70;;;;;;;8.40;93.49;100369.91;5113756;28;20080;-83
2023/05/07 08:58:07;;;;;;;10.00;8.13;;;;;;;8.44;92.85;100361.16;5114224;28;20059;-83
2023/05/07 09:00:32;;;;;;;9.45;8.55;;;;;;;8.82;92.19;100399.97;5114479;28;20046;-83
2023/05/07 09:02:58;;;;;;;27.45;16.52;;;;;;;8.77;91.78;100381.91;5114584;28;20023;-83
2023/05/07 09:05:23;;;;;;;20.88;14.65;;;;;;;8.81;90.57;100404.31;5114647;28;20081;-83
2023/05/07 09:07:48;;;;;;;11.52;10.32;;;;;;;8.80;89.88;100425.13;5114054;28;20062;-83
2023/05/07 09:10:14;;;;;;;13.10;11.68;;;;;;;8.71;90.28;100426.22;5114165;28;20030;-83
2023/05/07 09:12:40;;;;;;;10.52;9.27;;;;;;;8.42;90.86;100386.28;5113914;28;20172;-83
2023/05/07 09:15:06;;;;;;;8.98;8.07;;;;;;;8.69;89.96;100430.63;5114331;28;20027;-83
2023/05/07 09:17:32;;;;;;;7.22;6.53;;;;;;;8.62;90.50;100403.09;5094054;28;20088;-83
2023/05/07 09:20:05;;;;;;;11.18;8.65;;;;;;;8.76;91.54;100424.34;5114578;28;20016;-83
2023/05/07 09:22:36;;;;;;;11.18;9.23;;;;;;;9.03;90.24;100421.91;5070725;28;20427;-83
2023/05/07 09:25:01;;;;;;;9.37;8.10;;;;;;;9.11;89.44;100401.75;5071276;28;20052;-83
2023/05/07 09:27:27;;;;;;;7.70;6.93;;;;;;;9.27;88.04;100421.22;5070983;28;20095;-83
2023/05/07 09:29:52;;;;;;;7.75;6.45;;;;;;;9.10;88.29;100418.22;5070706;28;20036;-83
2023/05/07 09:32:18;;;;;;;9.15;7.60;;;;;;;9.09;88.55;100422.56;5071269;28;20068;-85
2023/05/07 09:34:43;;;;;;;15.93;11.55;;;;;;;8.97;89.32;100407.31;5070571;28;20618;-83
2023/05/07 09:37:09;;;;;;;15.27;11.57;;;;;;;8.71;89.13;100392.47;5070694;28;20036;-83
2023/05/07 09:39:41;;;;;;;11.95;10.02;;;;;;;8.95;89.77;100425.56;5070626;28;20043;-82
2023/05/07 09:42:06;;;;;;;13.40;9.65;;;;;;;8.80;89.76;100394.81;5070392;28;20037;-82
2023/05/07 09:44:33;;;;;;;9.52;7.50;;;;;;;8.85;89.53;100392.94;5070347;28;20387;-82
2023/05/07 09:47:00;;;;;;;11.68;7.10;;;;;;;8.76;88.86;100369.81;5070418;28;20036;-82
2023/05/07 09:49:32;;;;;;;10.20;8.63;;;;;;;9.20;88.67;100420.53;5070381;28;20112;-82
2023/05/07 09:52:02;;;;;;;11.02;8.23;;;;;;;9.45;87.80;100417.22;5069945;28;20590;-83
2023/05/07 09:54:30;;;;;;;12.63;8.55;;;;;;;9.73;86.26;100405.09;5108373;28;20123;-83
2023/05/07 09:56:56;;;;;;;25.77;16.08;;;;;;;9.97;84.57;100395.63;5094971;28;20027;-83
2023/05/07 09:59:23;;;;;;;18.50;12.32;;;;;;;10.13;83.87;100385.59;5095127;28;20059;-82
2023/05/07 10:01:49;;;;;;;7.18;6.18;;;;;;;10.12;82.26;100389.09;5094844;28;20015;-83
2023/05/07 10:04:15;;;;;;;7.85;6.38;;;;;;;10.26;80.88;100401.69;5094998;28;20035;-83
2023/05/07 10:06:41;;;;;;;6.75;5.93;;;;;;;9.92;81.77;100383.69;5112801;28;20019;-83
2023/05/07 10:09:07;;;;;;;9.15;8.02;;;;;;;9.95;82.54;100405.25;5113223;28;20110;-83
2023/05/07 10:11:36;;;;;;;10.57;7.55;;;;;;;9.80;83.26;100423.09;5113024;28;20110;-83
2023/05/07 10:14:03;;;;;;;15.18;9.85;;;;;;;9.82;83.47;100429.97;5094870;28;20485;-83
2023/05/07 10:16:35;;;;;;;10.23;6.78;;;;;;;9.48;83.45;100412.78;5113018;28;20487;-83
2023/05/07 10:19:02;;;;;;;10.38;7.68;;;;;;;9.33;84.36;100399.38;5112880;28;20619;-83
2023/05/07 10:21:29;;;;;;;11.85;8.48;;;;;;;9.58;84.70;100433.31;5113571;28;20040;-83
2023/05/07 10:24:00;;;;;;;11.27;8.05;;;;;;;9.92;83.90;100448.75;5112818;28;20489;-83
2023/05/07 10:26:28;;;;;;;12.18;8.45;;;;;;;9.94;83.46;100450.41;5112866;28;20027;-83
2023/05/07 10:28:59;;;;;;;8.55;7.38;;;;;;;10.23;82.74;100446.84;5112606;28;20027;-83
2023/05/07 10:31:49;;;;;;;9.35;6.38;;;;;;;10.56;81.75;100444.06;5094670;28;20057;-83
2023/05/07 10:34:19;;;;;;;8.45;6.70;;;;;;;10.54;81.00;100393.78;5112841;28;20081;-83
2023/05/07 10:36:47;;;;;;;8.13;7.35;;;;;;;10.95;80.62;100440.97;5112336;28;20101;-83
2023/05/07 10:39:13;;;;;;;7.82;5.85;;;;;;;10.49;80.16;100426.94;5112844;28;20019;-83
2023/05/07 10:41:39;;;;;;;8.30;5.68;;;;;;;10.31;80.36;100431.00;5112490;28;20540;-83
2023/05/07 10:44:04;;;;;;;9.75;8.02;;;;;;;10.19;81.15;100408.78;5094307;28;20032;-83
2023/05/07 10:46:32;;;;;;;12.93;9.65;;;;;;;10.20;82.06;100427.91;5112667;28;20114;-83
2023/05/07 10:49:01;;;;;;;7.60;6.90;;;;;;;10.30;81.56;100454.50;5112371;28;20058;-83
2023/05/07 10:51:27;;;;;;;10.57;8.18;;;;;;;10.33;81.33;100444.84;5112482;28;20028;-83
2023/05/07 10:54:11;;;;;;;10.75;7.05;;;;;;;10.32;80.73;100453.53;5112305;28;20112;-83
2023/05/07 10:56:43;;;;;;;9.00;7.18;;;;;;;10.14;81.34;100444.56;5093846;28;20032;-83
2023/05/07 10:59:20;;;;;;;10.05;7.40;;;;;;;10.21;81.31;100450.44;5094272;28;20027;-83
2023/05/07 11:02:13;;;;;;;5.25;4.75;;;;;;;10.31;81.15;100444.03;5112175;28;20032;-83
2023/05/07 11:04:41;;;;;;;11.15;8.95;;;;;;;10.43;80.87;100433.22;5009401;28;20048;-83
2023/05/07 11:07:06;;;;;;;8.07;5.72;;;;;;;10.54;80.47;100440.69;5009599;28;20065;-83
2023/05/07 11:09:50;;;;;;;7.45;6.25;;;;;;;10.62;79.99;100451.69;5009671;28;20125;-83
2023/05/07 11:12:16;;;;;;;5.60;4.80;;;;;;;10.41;79.36;100426.38;5009589;28;20088;-83
2023/05/07 11:14:42;;;;;;;12.43;8.60;;;;;;;10.61;79.26;100446.50;5009330;28;20437;-83